createdAt,value
2024-03-08T00:00:07.866Z,311.70
2024-03-08T00:01:14.678Z,311.73
2024-03-08T00:02:21.529Z,308.63
2024-03-08T00:03:28.343Z,305.57
2024-03-08T00:04:35.199Z,305.40
2024-03-08T00:05:42.070Z,305.57
2024-03-08T00:06:48.911Z,303.90
2024-03-08T00:07:55.732Z,304.93
2024-03-08T00:09:02.598Z,328.03
2024-03-08T00:10:09.478Z,312.93
2024-03-08T00:11:16.341Z,309.13
2024-03-08T00:12:23.255Z,312.13
2024-03-08T00:13:30.193Z,313.03
2024-03-08T00:14:37.043Z,313.70
2024-03-08T00:15:43.908Z,313.07
2024-03-08T00:16:50.768Z,313.37
2024-03-08T00:17:57.712Z,328.17
2024-03-08T00:19:04.596Z,329.33
2024-03-08T00:20:11.479Z,331.10
2024-03-08T00:21:18.325Z,328.27
2024-03-08T00:22:25.237Z,325.10
2024-03-08T00:23:32.193Z,323.13
2024-03-08T00:24:39.008Z,320.80
2024-03-08T00:25:45.836Z,318.50
2024-03-08T00:26:52.778Z,316.90
2024-03-08T00:27:59.660Z,316.20
2024-03-08T00:29:06.482Z,313.23
2024-03-08T00:30:13.326Z,313.83
2024-03-08T00:31:20.150Z,316.13
2024-03-08T00:32:27.002Z,314.77
2024-03-08T00:33:33.920Z,312.33
2024-03-08T00:34:40.843Z,311.37
2024-03-08T00:35:47.676Z,315.90
2024-03-08T00:36:54.461Z,318.07
2024-03-08T00:38:01.337Z,319.70
2024-03-08T00:39:08.314Z,322.20
2024-03-08T00:40:15.304Z,314.33
2024-03-08T00:41:22.124Z,312.97
2024-03-08T00:42:28.949Z,310.67
2024-03-08T00:43:35.827Z,309.10
2024-03-08T00:44:42.717Z,310.57
2024-03-08T00:45:49.506Z,314.60
2024-03-08T00:46:56.323Z,314.43
2024-03-08T00:48:03.231Z,315.37
2024-03-08T00:49:10.268Z,314.90
2024-03-08T00:50:17.143Z,316.80
2024-03-08T00:51:23.986Z,316.27
2024-03-08T00:52:30.807Z,314.53
2024-03-08T00:53:37.682Z,316.57
2024-03-08T00:54:45.116Z,315.37
2024-03-08T00:55:52.032Z,325.50
2024-03-08T00:56:58.907Z,324.27
2024-03-08T00:58:05.721Z,321.57
2024-03-08T00:59:12.585Z,320.97
2024-03-08T01:00:19.503Z,322.03
2024-03-08T01:01:26.382Z,320.27
2024-03-08T01:02:33.186Z,320.27
2024-03-08T01:03:40.000Z,320.43
2024-03-08T01:04:46.863Z,321.10
2024-03-08T01:05:53.707Z,317.17
2024-03-08T01:07:00.738Z,317.27
2024-03-08T01:08:07.702Z,320.07
2024-03-08T01:09:14.572Z,318.93
2024-03-08T01:10:21.355Z,320.33
2024-03-08T01:11:28.288Z,320.80
2024-03-08T01:12:35.155Z,321.53
2024-03-08T01:13:41.942Z,317.80
2024-03-08T01:14:48.783Z,317.30
2024-03-08T01:15:55.693Z,316.00
2024-03-08T01:17:02.640Z,315.13
2024-03-08T01:18:09.579Z,316.90
2024-03-08T01:19:16.478Z,316.73
2024-03-08T01:20:23.258Z,315.87
2024-03-08T01:21:30.073Z,312.73
2024-03-08T01:22:36.945Z,313.03
2024-03-08T01:23:43.825Z,313.50
2024-03-08T01:24:50.619Z,315.50
2024-03-08T01:25:57.428Z,316.33
2024-03-08T01:27:04.305Z,316.53
2024-03-08T01:28:11.168Z,317.50
2024-03-08T01:29:18.048Z,316.57
2024-03-08T01:30:24.853Z,316.53
2024-03-08T01:31:31.636Z,315.00
2024-03-08T01:32:38.567Z,315.47
2024-03-08T01:33:45.574Z,308.77
2024-03-08T01:34:52.518Z,310.27
2024-03-08T01:35:59.357Z,311.53
2024-03-08T01:37:06.165Z,312.47
2024-03-08T01:38:12.939Z,311.27
2024-03-08T01:39:19.842Z,311.47
2024-03-08T01:40:26.713Z,307.47
2024-03-08T01:41:33.551Z,308.53
2024-03-08T01:42:40.397Z,309.80
2024-03-08T01:43:47.171Z,310.03
2024-03-08T01:44:54.011Z,309.57
2024-03-08T01:46:00.843Z,306.10
2024-03-08T01:47:07.658Z,305.47
2024-03-08T01:48:14.570Z,308.57
2024-03-08T01:49:21.411Z,309.27
2024-03-08T01:50:28.346Z,307.73
2024-03-08T01:51:35.155Z,307.87
2024-03-08T01:52:41.955Z,308.03
2024-03-08T01:53:48.844Z,306.90
2024-03-08T01:54:55.756Z,307.60
2024-03-08T01:56:02.619Z,305.93
2024-03-08T01:57:09.497Z,304.17
2024-03-08T01:58:16.329Z,304.40
2024-03-08T01:59:23.117Z,303.73
2024-03-08T02:00:29.903Z,301.77
2024-03-08T02:01:36.769Z,303.83
2024-03-08T02:02:43.619Z,304.47
2024-03-08T02:03:50.419Z,306.37
2024-03-08T02:04:57.214Z,304.13
2024-03-08T02:06:04.086Z,305.57
2024-03-08T02:07:11.472Z,304.87
2024-03-08T02:08:18.410Z,315.20
2024-03-08T02:09:25.263Z,317.00
2024-03-08T02:10:32.061Z,317.20
2024-03-08T02:11:39.007Z,315.83
2024-03-08T02:12:45.948Z,316.80
2024-03-08T02:13:52.797Z,312.83
2024-03-08T02:14:59.719Z,311.40
2024-03-08T02:16:06.520Z,310.43
2024-03-08T02:17:13.379Z,310.57
2024-03-08T02:18:20.366Z,310.30
2024-03-08T02:19:27.153Z,307.77
2024-03-08T02:20:33.974Z,306.57
2024-03-08T02:21:40.813Z,304.53
2024-03-08T02:22:47.636Z,304.43
2024-03-08T02:23:54.541Z,304.47
2024-03-08T02:25:01.377Z,304.30
2024-03-08T02:26:08.132Z,306.30
2024-03-08T02:27:15.027Z,307.70
2024-03-08T02:28:21.882Z,307.30
2024-03-08T02:29:28.774Z,307.83
2024-03-08T02:30:35.560Z,305.93
2024-03-08T02:31:42.376Z,304.10
2024-03-08T02:32:49.237Z,306.40
2024-03-08T02:33:56.103Z,308.40
2024-03-08T02:35:02.994Z,308.90
2024-03-08T02:36:09.914Z,309.40
2024-03-08T02:37:16.704Z,309.17
2024-03-08T02:38:23.605Z,309.90
2024-03-08T02:39:30.469Z,299.77
2024-03-08T02:40:37.339Z,298.57
2024-03-08T02:41:44.213Z,298.80
2024-03-08T02:42:50.982Z,299.37
2024-03-08T02:43:57.821Z,299.63
2024-03-08T02:45:04.662Z,300.80
2024-03-08T02:46:11.475Z,301.53
2024-03-08T02:47:18.319Z,301.20
2024-03-08T02:48:25.214Z,301.90
2024-03-08T02:49:32.048Z,301.37
2024-03-08T02:50:38.857Z,301.33
2024-03-08T02:51:45.716Z,304.03
2024-03-08T02:52:52.561Z,315.70
2024-03-08T02:53:59.371Z,316.13
2024-03-08T02:55:06.178Z,319.63
2024-03-08T02:56:13.079Z,317.87
2024-03-08T02:57:19.995Z,318.53
2024-03-08T02:58:26.740Z,317.90
2024-03-08T02:59:33.577Z,320.47
2024-03-08T03:00:40.867Z,318.37
2024-03-08T03:01:47.761Z,316.37
2024-03-08T03:02:54.738Z,318.77
2024-03-08T03:04:01.641Z,309.53
2024-03-08T03:05:08.406Z,306.93
2024-03-08T03:06:15.188Z,306.93
2024-03-08T03:07:22.000Z,307.80
2024-03-08T03:08:28.887Z,308.03
2024-03-08T03:09:35.736Z,309.00
2024-03-08T03:10:42.643Z,309.73
2024-03-08T03:11:49.514Z,308.67
2024-03-08T03:12:56.335Z,306.30
2024-03-08T03:14:03.193Z,305.17
2024-03-08T03:15:10.102Z,303.67
2024-03-08T03:16:17.034Z,309.83
2024-03-08T03:17:23.827Z,312.30
2024-03-08T03:18:30.684Z,312.63
2024-03-08T03:19:37.529Z,309.40
2024-03-08T03:20:44.875Z,309.90
2024-03-08T03:21:51.806Z,310.03
2024-03-08T03:22:58.633Z,312.50
2024-03-08T03:24:05.638Z,316.03
2024-03-08T03:25:12.715Z,318.37
2024-03-08T03:26:19.576Z,306.50
2024-03-08T03:27:26.349Z,307.13
2024-03-08T03:28:33.136Z,306.93
2024-03-08T03:29:39.947Z,307.20
2024-03-08T03:30:46.765Z,307.40
2024-03-08T03:31:53.578Z,307.47
2024-03-08T03:33:00.452Z,304.27
2024-03-08T03:34:07.292Z,303.47
2024-03-08T03:35:14.096Z,304.50
2024-03-08T03:36:21.004Z,303.50
2024-03-08T03:37:27.887Z,301.90
2024-03-08T03:38:34.750Z,301.57
2024-03-08T03:39:41.517Z,300.33
2024-03-08T03:40:48.317Z,302.07
2024-03-08T03:41:55.169Z,302.93
2024-03-08T03:43:02.005Z,303.37
2024-03-08T03:44:08.817Z,299.97
2024-03-08T03:45:15.599Z,299.27
2024-03-08T03:46:22.425Z,300.40
2024-03-08T03:47:29.424Z,299.53
2024-03-08T03:48:36.320Z,299.40
2024-03-08T03:49:43.206Z,301.03
2024-03-08T03:50:50.168Z,299.40
2024-03-08T03:51:56.958Z,298.73
2024-03-08T03:53:03.786Z,300.80
2024-03-08T03:54:10.590Z,303.37
2024-03-08T03:55:17.481Z,303.63
2024-03-08T03:56:24.269Z,306.47
2024-03-08T03:57:31.055Z,306.20
2024-03-08T03:58:37.889Z,306.30
2024-03-08T03:59:44.667Z,308.00
2024-03-08T04:00:51.479Z,306.33
2024-03-08T04:01:58.301Z,303.57
2024-03-08T04:03:05.226Z,303.93
2024-03-08T04:04:12.041Z,315.87
2024-03-08T04:05:18.886Z,318.47
2024-03-08T04:06:25.689Z,319.57
2024-03-08T04:07:32.470Z,318.93
2024-03-08T04:08:39.281Z,319.50
2024-03-08T04:09:46.094Z,320.13
2024-03-08T04:10:52.834Z,308.27
2024-03-08T04:11:59.686Z,307.60
2024-03-08T04:13:06.503Z,311.87
2024-03-08T04:14:13.311Z,310.93
2024-03-08T04:15:20.154Z,310.83
2024-03-08T04:16:26.932Z,309.40
2024-03-08T04:17:33.815Z,308.67
2024-03-08T04:18:40.686Z,306.30
2024-03-08T04:19:47.519Z,305.70
2024-03-08T04:20:54.344Z,304.97
2024-03-08T04:22:01.122Z,303.60
2024-03-08T04:23:07.983Z,301.40
2024-03-08T04:24:14.821Z,302.57
2024-03-08T04:25:21.659Z,303.20
2024-03-08T04:26:28.556Z,302.10
2024-03-08T04:27:35.775Z,313.13
2024-03-08T04:28:42.740Z,315.23
2024-03-08T04:29:49.535Z,316.33
2024-03-08T04:30:56.307Z,317.57
2024-03-08T04:32:03.162Z,316.93
2024-03-08T04:33:10.077Z,315.37
2024-03-08T04:34:16.957Z,313.40
2024-03-08T04:35:23.828Z,313.90
2024-03-08T04:36:30.620Z,313.40
2024-03-08T04:37:37.526Z,313.40
2024-03-08T04:38:44.476Z,312.83
2024-03-08T04:39:51.384Z,315.20
2024-03-08T04:40:58.195Z,323.13
2024-03-08T04:42:06.576Z,324.57
2024-03-08T04:43:13.659Z,323.40
2024-03-08T04:44:20.462Z,323.33
2024-03-08T04:45:27.244Z,321.17
2024-03-08T04:46:34.051Z,318.73
2024-03-08T04:47:40.967Z,317.47
2024-03-08T04:48:48.075Z,316.70
2024-03-08T04:49:54.963Z,313.30
2024-03-08T04:51:01.839Z,311.97
2024-03-08T04:52:08.625Z,311.63
2024-03-08T04:53:15.443Z,311.17
2024-03-08T04:54:22.274Z,310.60
2024-03-08T04:55:29.071Z,310.57
2024-03-08T04:56:35.901Z,313.27
2024-03-08T04:57:42.730Z,313.47
2024-03-08T04:58:49.493Z,312.77
2024-03-08T04:59:56.379Z,315.23
2024-03-08T05:01:03.164Z,316.77
2024-03-08T05:02:09.979Z,315.63
2024-03-08T05:03:16.874Z,313.43
2024-03-08T05:04:23.800Z,311.03
2024-03-08T05:05:30.637Z,307.73
2024-03-08T05:06:37.545Z,308.40
2024-03-08T05:07:44.559Z,300.23
2024-03-08T05:08:51.397Z,298.77
2024-03-08T05:09:58.241Z,292.47
2024-03-08T05:11:05.062Z,288.67
2024-03-08T05:12:11.961Z,289.67
2024-03-08T05:13:18.756Z,288.37
2024-03-08T05:14:25.597Z,288.60
2024-03-08T05:15:32.449Z,277.90
2024-03-08T05:16:39.280Z,275.37
2024-03-08T05:17:46.207Z,269.73
2024-03-08T05:18:53.160Z,266.93
2024-03-08T05:20:00.004Z,271.63
2024-03-08T05:21:06.922Z,278.60
2024-03-08T05:22:13.854Z,276.63
2024-03-08T05:23:20.718Z,278.47
2024-03-08T05:24:27.461Z,278.30
2024-03-08T05:25:34.362Z,280.97
2024-03-08T05:26:41.199Z,281.57
2024-03-08T05:27:48.055Z,282.60
2024-03-08T05:28:54.868Z,283.23
2024-03-08T05:30:01.839Z,285.77
2024-03-08T05:31:08.653Z,300.77
2024-03-08T05:32:15.502Z,304.93
2024-03-08T05:33:22.411Z,312.77
2024-03-08T05:34:29.217Z,329.27
2024-03-08T05:35:36.098Z,334.00
2024-03-08T05:36:42.896Z,333.77
2024-03-08T05:37:49.677Z,342.77
2024-03-08T05:38:56.442Z,343.63
2024-03-08T05:40:03.270Z,337.87
2024-03-08T05:41:10.074Z,324.37
2024-03-08T05:42:17.082Z,325.70
2024-03-08T05:43:23.924Z,308.73
2024-03-08T05:44:30.741Z,321.23
2024-03-08T05:45:37.515Z,329.87
2024-03-08T05:46:44.380Z,309.80
2024-03-08T05:47:51.328Z,299.83
2024-03-08T05:48:58.375Z,307.53
2024-03-08T05:50:05.274Z,316.43
2024-03-08T05:51:12.173Z,309.77
2024-03-08T05:52:19.006Z,320.93
2024-03-08T05:53:25.823Z,317.47
2024-03-08T05:54:32.646Z,313.17
2024-03-08T05:55:39.453Z,319.43
2024-03-08T05:56:46.560Z,319.93
2024-03-08T05:57:53.428Z,314.43
2024-03-08T05:59:00.252Z,317.50
2024-03-08T06:00:07.168Z,315.20
2024-03-08T06:01:14.103Z,317.40
2024-03-08T06:02:20.897Z,314.93
2024-03-08T06:03:27.686Z,309.70
2024-03-08T06:04:34.566Z,318.37
2024-03-08T06:05:41.399Z,304.83
2024-03-08T06:06:51.398Z,297.00
2024-03-08T06:07:59.650Z,301.10
2024-03-08T06:09:06.556Z,301.00
2024-03-08T06:10:13.440Z,304.83
2024-03-08T06:11:20.269Z,307.27
2024-03-08T06:12:27.158Z,295.30
2024-03-08T06:13:33.962Z,314.27
2024-03-08T06:14:40.826Z,306.63
2024-03-08T06:15:47.658Z,320.53
2024-03-08T06:16:54.469Z,290.10
2024-03-08T06:18:01.454Z,303.33
2024-03-08T06:19:08.424Z,312.47
2024-03-08T06:20:15.411Z,318.00
2024-03-08T06:21:22.608Z,315.80
2024-03-08T06:22:29.454Z,314.07
2024-03-08T06:23:36.267Z,319.50
2024-03-08T06:24:43.036Z,324.03
2024-03-08T06:25:49.862Z,329.30
2024-03-08T06:26:56.698Z,324.00
2024-03-08T06:28:03.588Z,326.87
2024-03-08T06:29:10.352Z,324.60
2024-03-08T06:30:17.582Z,323.60
2024-03-08T06:31:24.453Z,325.67
2024-03-08T06:32:31.456Z,325.47
2024-03-08T06:33:38.320Z,325.57
2024-03-08T06:34:45.113Z,323.83
2024-03-08T06:35:52.016Z,322.93
2024-03-08T06:36:58.847Z,323.63
2024-03-08T06:38:05.672Z,322.80
2024-03-08T06:39:12.544Z,322.73
2024-03-08T06:40:19.393Z,322.37
2024-03-08T06:41:26.205Z,318.90
2024-03-08T06:42:32.988Z,314.97
2024-03-08T06:43:39.832Z,315.17
2024-03-08T06:44:46.665Z,313.13
2024-03-08T06:45:53.491Z,314.50
2024-03-08T06:47:01.130Z,313.93
2024-03-08T06:48:08.181Z,314.60
2024-03-08T06:49:14.999Z,313.77
2024-03-08T06:50:21.782Z,315.77
2024-03-08T06:51:28.602Z,314.30
2024-03-08T06:52:35.385Z,315.77
2024-03-08T06:53:42.212Z,316.83
2024-03-08T06:54:49.084Z,313.50
2024-03-08T06:55:55.895Z,313.07
2024-03-08T06:57:02.701Z,315.63
2024-03-08T06:58:09.596Z,314.47
2024-03-08T06:59:16.396Z,318.60
2024-03-08T07:00:23.337Z,316.07
2024-03-08T07:01:30.117Z,316.00
2024-03-08T07:02:36.941Z,314.97
2024-03-08T07:03:43.685Z,316.27
2024-03-08T07:04:50.464Z,317.57
2024-03-08T07:05:57.321Z,316.03
2024-03-08T07:07:04.097Z,315.57
2024-03-08T07:08:10.944Z,312.83
2024-03-08T07:09:17.883Z,312.77
2024-03-08T07:10:24.799Z,314.10
2024-03-08T07:11:31.657Z,314.90
2024-03-08T07:12:38.489Z,315.37
2024-03-08T07:13:45.307Z,315.00
2024-03-08T07:14:52.155Z,314.63
2024-03-08T07:15:58.956Z,315.50
2024-03-08T07:17:07.496Z,316.07
2024-03-08T07:18:14.497Z,316.83
2024-03-08T07:19:21.288Z,316.27
2024-03-08T07:20:28.111Z,315.43
2024-03-08T07:21:34.944Z,316.03
2024-03-08T07:22:41.779Z,319.10
2024-03-08T07:23:48.581Z,319.30
2024-03-08T07:24:55.393Z,320.43
2024-03-08T07:26:02.215Z,321.90
2024-03-08T07:27:09.074Z,324.80
2024-03-08T07:28:15.918Z,326.93
2024-03-08T07:29:22.706Z,326.27
2024-03-08T07:30:30.214Z,324.03
2024-03-08T07:31:37.127Z,310.57
2024-03-08T07:32:43.988Z,310.33
2024-03-08T07:33:51.008Z,310.07
2024-03-08T07:34:57.955Z,308.70
2024-03-08T07:36:04.813Z,307.70
2024-03-08T07:37:11.595Z,308.43
2024-03-08T07:38:18.429Z,308.33
2024-03-08T07:39:25.228Z,304.63
2024-03-08T07:40:32.011Z,302.10
2024-03-08T07:41:38.818Z,317.03
2024-03-08T07:42:45.631Z,318.83
2024-03-08T07:43:52.438Z,319.30
2024-03-08T07:44:59.293Z,320.80
2024-03-08T07:46:06.528Z,319.67
2024-03-08T07:47:13.301Z,318.40
2024-03-08T07:48:20.113Z,319.43
2024-03-08T07:49:26.923Z,319.63
2024-03-08T07:50:33.873Z,319.50
2024-03-08T07:51:40.791Z,317.40
2024-03-08T07:52:47.579Z,316.67
2024-03-08T07:53:54.350Z,318.50
2024-03-08T07:55:01.147Z,317.27
2024-03-08T07:56:07.940Z,314.33
2024-03-08T07:57:14.719Z,312.03
2024-03-08T07:58:21.570Z,311.70
2024-03-08T07:59:28.430Z,310.13
2024-03-08T08:00:35.201Z,311.67
2024-03-08T08:01:42.163Z,310.50
2024-03-08T08:02:49.018Z,309.57
2024-03-08T08:03:55.822Z,312.80
2024-03-08T08:05:02.594Z,314.27
2024-03-08T08:06:09.418Z,315.77
2024-03-08T08:07:16.275Z,315.83
2024-03-08T08:08:23.064Z,314.23
2024-03-08T08:09:30.087Z,313.67
2024-03-08T08:10:37.046Z,312.93
2024-03-08T08:11:43.873Z,314.67
2024-03-08T08:12:50.614Z,317.50
2024-03-08T08:13:57.405Z,320.67
2024-03-08T08:15:04.171Z,318.93
2024-03-08T08:16:10.992Z,315.83
2024-03-08T08:17:18.014Z,312.73
2024-03-08T08:18:24.817Z,312.23
2024-03-08T08:19:31.630Z,312.23
2024-03-08T08:20:38.431Z,313.93
2024-03-08T08:21:45.235Z,316.03
2024-03-08T08:22:52.041Z,314.47
2024-03-08T08:23:58.916Z,313.40
2024-03-08T08:25:05.705Z,312.53
2024-03-08T08:26:12.588Z,311.77
2024-03-08T08:27:19.388Z,311.47
2024-03-08T08:28:26.151Z,312.50
2024-03-08T08:29:32.938Z,311.30
2024-03-08T08:30:39.759Z,312.97
2024-03-08T08:31:46.632Z,317.00
2024-03-08T08:32:53.449Z,318.40
2024-03-08T08:34:00.228Z,322.13
2024-03-08T08:35:07.183Z,325.20
2024-03-08T08:36:13.977Z,327.90
2024-03-08T08:37:22.036Z,330.97
2024-03-08T08:38:29.745Z,336.23
2024-03-08T08:39:36.539Z,336.40
2024-03-08T08:40:43.386Z,335.47
2024-03-08T08:41:50.184Z,333.30
2024-03-08T08:42:57.007Z,329.77
2024-03-08T08:44:14.663Z,325.20
2024-03-08T08:45:17.373Z,323.63
2024-03-08T08:46:25.217Z,329.10
2024-03-08T08:47:32.102Z,319.57
2024-03-08T08:48:38.878Z,323.60
2024-03-08T08:49:45.714Z,330.90
2024-03-08T08:50:52.561Z,337.03
2024-03-08T08:52:06.360Z,342.77
2024-03-08T08:53:11.141Z,348.27
2024-03-08T08:54:17.936Z,351.47
2024-03-08T08:55:24.793Z,355.97
2024-03-08T08:56:31.627Z,359.83
2024-03-08T08:57:38.434Z,360.77
2024-03-08T08:58:45.238Z,360.67
2024-03-08T08:59:52.040Z,361.37
2024-03-08T09:00:58.897Z,362.63
2024-03-08T09:02:05.883Z,379.40
2024-03-08T09:03:12.812Z,379.20
2024-03-08T09:04:19.602Z,381.10
2024-03-08T09:05:26.392Z,386.57
2024-03-08T09:06:33.201Z,399.47
2024-03-08T09:07:40.084Z,416.30
2024-03-08T09:08:46.937Z,429.50
2024-03-08T09:09:53.793Z,475.43
2024-03-08T09:11:00.629Z,484.67
2024-03-08T09:12:07.547Z,499.47
2024-03-08T09:13:18.685Z,506.70
2024-03-08T09:14:26.055Z,516.03
2024-03-08T09:15:32.949Z,519.70
2024-03-08T09:16:39.818Z,521.10
2024-03-08T09:17:46.719Z,520.83
2024-03-08T09:18:53.456Z,517.43
2024-03-08T09:20:00.337Z,513.17
2024-03-08T09:21:07.123Z,510.80
2024-03-08T09:22:13.934Z,507.53
2024-03-08T09:23:20.770Z,498.40
2024-03-08T09:24:27.557Z,483.30
2024-03-08T09:25:34.397Z,471.90
2024-03-08T09:26:41.263Z,469.20
2024-03-08T09:27:48.091Z,465.97
2024-03-08T09:28:54.984Z,462.20
2024-03-08T09:30:01.797Z,446.10
2024-03-08T09:31:08.596Z,448.57
2024-03-08T09:32:15.360Z,446.63
2024-03-08T09:33:22.223Z,448.20
2024-03-08T09:34:36.490Z,449.90
2024-03-08T09:35:40.677Z,452.97
2024-03-08T09:36:47.502Z,455.97
2024-03-08T09:37:54.343Z,452.70
2024-03-08T09:39:01.119Z,446.90
2024-03-08T09:40:07.946Z,444.37
2024-03-08T09:41:14.730Z,442.70
2024-03-08T09:42:21.522Z,436.53
2024-03-08T09:43:28.379Z,427.70
2024-03-08T09:44:35.152Z,418.17
2024-03-08T09:45:41.994Z,416.83
2024-03-08T09:46:48.789Z,416.93
2024-03-08T09:47:55.744Z,416.60
2024-03-08T09:49:02.522Z,408.80
2024-03-08T09:50:09.321Z,401.10
2024-03-08T09:51:16.500Z,402.00
2024-03-08T09:52:23.326Z,393.97
2024-03-08T09:53:30.170Z,389.17
2024-03-08T09:54:37.024Z,388.57
2024-03-08T09:55:43.971Z,390.37
2024-03-08T09:56:50.813Z,394.67
2024-03-08T09:57:57.630Z,397.07
2024-03-08T09:59:04.527Z,401.87
2024-03-08T10:00:11.338Z,402.10
2024-03-08T10:01:18.177Z,404.80
2024-03-08T10:02:25.178Z,410.40
2024-03-08T10:03:32.064Z,412.83
2024-03-08T10:04:38.954Z,415.70
2024-03-08T10:05:45.841Z,418.33
2024-03-08T10:06:52.659Z,422.57
2024-03-08T10:07:59.478Z,423.63
2024-03-08T10:09:06.254Z,426.43
2024-03-08T10:10:13.261Z,427.03
2024-03-08T10:11:20.241Z,410.93
2024-03-08T10:12:27.028Z,408.60
2024-03-08T10:13:33.860Z,407.60
2024-03-08T10:14:40.670Z,405.07
2024-03-08T10:15:47.627Z,404.33
2024-03-08T10:16:54.507Z,405.87
2024-03-08T10:18:01.322Z,420.87
2024-03-08T10:19:08.110Z,419.50
2024-03-08T10:20:14.882Z,418.77
2024-03-08T10:21:21.711Z,419.17
2024-03-08T10:22:28.512Z,417.57
2024-03-08T10:23:35.374Z,414.70
2024-03-08T10:24:42.228Z,414.20
2024-03-08T10:25:49.109Z,414.97
2024-03-08T10:26:55.968Z,413.37
2024-03-08T10:28:02.803Z,414.30
2024-03-08T10:29:09.589Z,411.77
2024-03-08T10:30:16.404Z,407.93
2024-03-08T10:31:23.238Z,404.73
2024-03-08T10:32:30.071Z,401.93
2024-03-08T10:33:36.859Z,398.83
2024-03-08T10:34:43.734Z,391.67
2024-03-08T10:35:50.545Z,384.80
2024-03-08T10:36:57.329Z,379.93
2024-03-08T10:38:04.174Z,376.30
2024-03-08T10:39:10.996Z,377.33
2024-03-08T10:40:17.863Z,377.43
2024-03-08T10:41:24.636Z,376.10
2024-03-08T10:42:31.445Z,375.63
2024-03-08T10:43:38.381Z,373.47
2024-03-08T10:44:45.225Z,356.60
2024-03-08T10:45:52.057Z,350.10
2024-03-08T10:46:58.906Z,346.60
2024-03-08T10:48:05.779Z,344.57
2024-03-08T10:49:12.694Z,348.07
2024-03-08T10:50:19.546Z,351.10
2024-03-08T10:51:26.329Z,351.73
2024-03-08T10:52:33.305Z,354.30
2024-03-08T10:53:40.176Z,358.87
2024-03-08T10:54:46.981Z,373.67
2024-03-08T10:55:53.805Z,376.20
2024-03-08T10:57:00.645Z,376.70
2024-03-08T10:58:07.405Z,375.07
2024-03-08T10:59:14.216Z,373.23
2024-03-08T11:00:21.049Z,371.13
2024-03-08T11:01:28.110Z,368.47
2024-03-08T11:02:34.865Z,364.57
2024-03-08T11:03:41.692Z,362.83
2024-03-08T11:04:48.505Z,362.13
2024-03-08T11:05:55.320Z,361.20
2024-03-08T11:07:02.133Z,358.67
2024-03-08T11:08:08.957Z,356.13
2024-03-08T11:09:15.726Z,358.03
2024-03-08T11:10:22.521Z,360.27
2024-03-08T11:11:33.385Z,365.53
2024-03-08T11:12:41.063Z,357.57
2024-03-08T11:13:48.264Z,361.77
2024-03-08T11:14:55.092Z,369.67
2024-03-08T11:16:01.966Z,380.40
2024-03-08T11:17:08.809Z,377.53
2024-03-08T11:18:15.673Z,369.57
2024-03-08T11:19:22.481Z,364.37
2024-03-08T11:20:29.272Z,360.07
2024-03-08T11:21:36.046Z,357.43
2024-03-08T11:22:43.007Z,351.13
2024-03-08T11:23:49.892Z,347.60
2024-03-08T11:24:56.740Z,355.83
2024-03-08T11:26:03.525Z,355.77
2024-03-08T11:27:10.280Z,345.87
2024-03-08T11:28:17.139Z,348.80
2024-03-08T11:29:23.908Z,351.07
2024-03-08T11:30:30.690Z,355.30
2024-03-08T11:31:37.599Z,357.03
2024-03-08T11:32:44.411Z,373.67
2024-03-08T11:33:51.216Z,377.80
2024-03-08T11:34:58.054Z,380.00
2024-03-08T11:36:06.880Z,383.27
2024-03-08T11:37:14.979Z,374.27
2024-03-08T11:38:21.760Z,374.70
2024-03-08T11:39:28.589Z,376.30
2024-03-08T11:40:35.547Z,375.97
2024-03-08T11:41:42.455Z,375.43
2024-03-08T11:42:49.554Z,377.10
2024-03-08T11:43:56.743Z,389.47
2024-03-08T11:45:03.640Z,389.10
2024-03-08T11:46:10.472Z,387.73
2024-03-08T11:47:17.425Z,387.70
2024-03-08T11:48:24.472Z,387.47
2024-03-08T11:49:31.314Z,387.40
2024-03-08T11:50:38.100Z,387.43
2024-03-08T11:51:44.932Z,385.00
2024-03-08T11:52:51.750Z,384.27
2024-03-08T11:53:58.620Z,384.50
2024-03-08T11:55:05.440Z,381.77
2024-03-08T11:56:12.337Z,380.40
2024-03-08T11:57:19.232Z,381.33
2024-03-08T11:58:26.085Z,382.53
2024-03-08T11:59:32.870Z,382.30
2024-03-08T12:00:39.681Z,384.87
2024-03-08T12:01:46.541Z,381.20
2024-03-08T12:02:53.449Z,376.17
2024-03-08T12:04:00.449Z,374.63
2024-03-08T12:05:07.432Z,364.10
2024-03-08T12:06:14.208Z,363.40
2024-03-08T12:07:21.100Z,361.90
2024-03-08T12:08:27.944Z,363.70
2024-03-08T12:09:34.721Z,364.67
2024-03-08T12:10:41.578Z,366.10
2024-03-08T12:11:48.500Z,366.60
2024-03-08T12:12:55.401Z,362.27
2024-03-08T12:14:02.218Z,363.00
2024-03-08T12:15:08.996Z,363.00
2024-03-08T12:16:15.838Z,364.30
2024-03-08T12:17:22.643Z,368.10
2024-03-08T12:18:29.438Z,370.17
2024-03-08T12:19:36.281Z,371.93
2024-03-08T12:20:43.097Z,370.20
2024-03-08T12:21:50.021Z,365.87
2024-03-08T12:22:56.917Z,363.00
2024-03-08T12:24:03.790Z,361.50
2024-03-08T12:25:10.658Z,357.73
2024-03-08T12:26:17.455Z,356.43
2024-03-08T12:27:24.219Z,359.27
2024-03-08T12:28:31.028Z,356.80
2024-03-08T12:29:37.902Z,353.40
2024-03-08T12:30:44.694Z,352.33
2024-03-08T12:31:51.578Z,353.87
2024-03-08T12:32:58.559Z,356.70
2024-03-08T12:34:05.516Z,357.07
2024-03-08T12:35:12.401Z,355.50
2024-03-08T12:36:19.227Z,354.77
2024-03-08T12:37:26.036Z,355.93
2024-03-08T12:38:33.107Z,355.90
2024-03-08T12:39:39.987Z,367.73
2024-03-08T12:40:46.891Z,367.63
2024-03-08T12:41:53.707Z,369.07
2024-03-08T12:43:00.525Z,369.67
2024-03-08T12:44:07.346Z,369.87
2024-03-08T12:45:14.112Z,370.50
2024-03-08T12:46:20.913Z,369.60
2024-03-08T12:47:27.762Z,370.30
2024-03-08T12:48:34.561Z,370.50
2024-03-08T12:49:41.436Z,373.00
2024-03-08T12:50:48.200Z,375.13
2024-03-08T12:51:55.039Z,377.57
2024-03-08T12:53:02.434Z,382.00
2024-03-08T12:54:09.953Z,374.10
2024-03-08T12:55:16.776Z,379.50
2024-03-08T12:56:23.569Z,409.53
2024-03-08T12:57:30.340Z,459.10
2024-03-08T12:58:37.233Z,499.73
2024-03-08T12:59:44.049Z,463.80
2024-03-08T13:00:54.049Z,402.97
2024-03-08T13:02:01.420Z,368.30
2024-03-08T13:03:08.362Z,356.87
2024-03-08T13:04:15.315Z,354.03
2024-03-08T13:05:22.202Z,364.97
2024-03-08T13:06:28.998Z,364.33
2024-03-08T13:07:35.828Z,364.30
2024-03-08T13:08:42.685Z,366.70
2024-03-08T13:09:49.511Z,373.23
2024-03-08T13:10:56.521Z,370.43
2024-03-08T13:12:03.571Z,365.40
2024-03-08T13:13:10.398Z,359.60
2024-03-08T13:14:17.249Z,350.60
2024-03-08T13:15:24.022Z,350.33
2024-03-08T13:16:31.029Z,342.23
2024-03-08T13:17:37.848Z,341.97
2024-03-08T13:18:44.701Z,351.33
2024-03-08T13:19:51.611Z,362.13
2024-03-08T13:20:58.441Z,374.60
2024-03-08T13:22:05.241Z,387.63
2024-03-08T13:23:12.040Z,388.13
2024-03-08T13:24:18.838Z,385.30
2024-03-08T13:25:25.683Z,379.87
2024-03-08T13:26:32.570Z,375.10
2024-03-08T13:27:39.435Z,372.07
2024-03-08T13:28:46.312Z,370.03
2024-03-08T13:29:53.145Z,371.43
2024-03-08T13:31:02.209Z,376.07
2024-03-08T13:32:10.978Z,382.57
2024-03-08T13:33:17.787Z,400.77
2024-03-08T13:34:24.631Z,404.50
2024-03-08T13:35:31.649Z,401.97
2024-03-08T13:36:38.605Z,402.43
2024-03-08T13:37:45.510Z,400.07
2024-03-08T13:38:52.293Z,393.10
2024-03-08T13:39:59.182Z,386.67
2024-03-08T13:41:06.254Z,378.10
2024-03-08T13:42:13.182Z,364.10
2024-03-08T13:43:20.040Z,352.23
2024-03-08T13:44:26.839Z,347.33
2024-03-08T13:45:33.602Z,343.70
2024-03-08T13:46:40.422Z,333.63
2024-03-08T13:47:47.284Z,327.33
2024-03-08T13:48:54.093Z,321.83
2024-03-08T13:50:00.961Z,316.73
2024-03-08T13:51:07.811Z,315.57
2024-03-08T13:52:14.639Z,310.40
2024-03-08T13:53:21.462Z,312.97
2024-03-08T13:54:28.378Z,309.20